Time;durP1;ratioP1;P1;durP2;ratioP2;P2;SDS_P1;SDS_P2;PMS_P1;PMS_P2;Temp;Humidity;BMP_temperature;BMP_pressure;BME280_temperature;BME280_humidity;BME280_pressure;Samples;Min_cycle;Max_cycle;Signal;HPM_P1;HPM_P2
2022/11/09 00:01:17;;;;;;;0.30;0.30;;;;;;;;;;7378301;19;20117;-69
2022/11/09 00:03:43;;;;;;;0.83;0.83;;;;;;;;;;7384958;19;20128;-69
2022/11/09 00:06:08;;;;;;;0.30;0.30;;;;;;;;;;7376195;19;20177;-69
2022/11/09 00:08:36;;;;;;;0.47;0.47;;;;;;;;;;7381896;19;20128;-69
2022/11/09 00:11:09;;;;;;;0.60;0.60;;;;;;;;;;7371653;19;20118;-72
2022/11/09 00:13:38;;;;;;;0.73;0.73;;;;;;;;;;7373710;19;20109;-72
2022/11/09 00:16:05;;;;;;;0.30;0.30;;;;;;;;;;7368992;19;20557;-69
2022/11/09 00:18:30;;;;;;;0.30;0.30;;;;;;;;;;7376969;19;20125;-71
2022/11/09 00:20:56;;;;;;;0.50;0.50;;;;;;;;;;7371556;19;20112;-71
2022/11/09 00:23:21;;;;;;;0.53;0.53;;;;;;;;;;7379448;19;20121;-69
2022/11/09 00:25:46;;;;;;;0.73;0.73;;;;;;;;;;7376946;19;20122;-71
2022/11/09 00:28:12;;;;;;;0.30;0.30;;;;;;;;;;7384644;19;20121;-69
2022/11/09 00:30:38;;;;;;;0.30;0.30;;;;;;;;;;7384224;19;20120;-70
2022/11/09 00:33:03;;;;;;;0.80;0.80;;;;;;;;;;7378769;19;20587;-70
2022/11/09 00:35:29;;;;;;;0.20;0.20;;;;;;;;;;7380956;19;20129;-69
2022/11/09 00:37:54;;;;;;;0.20;0.20;;;;;;;;;;7379757;19;20606;-69
2022/11/09 00:40:19;;;;;;;0.30;0.30;;;;;;;;;;7383734;19;20140;-69
2022/11/09 00:42:44;;;;;;;0.30;0.30;;;;;;;;;;7383045;19;20132;-69
2022/11/09 00:45:10;;;;;;;0.30;0.30;;;;;;;;;;7382772;19;20517;-69
2022/11/09 00:47:35;;;;;;;0.67;0.67;;;;;;;;;;7372704;19;20471;-69
2022/11/09 00:50:00;;;;;;;0.50;0.50;;;;;;;;;;7374250;19;20109;-72
2022/11/09 00:52:26;;;;;;;0.43;0.33;;;;;;;;;;7375395;19;20127;-69
2022/11/09 00:54:51;;;;;;;0.20;0.20;;;;;;;;;;7381415;19;20101;-72
2022/11/09 00:57:16;;;;;;;0.33;0.33;;;;;;;;;;7377245;19;20109;-69
2022/11/09 00:59:41;;;;;;;0.20;0.20;;;;;;;;;;7379919;19;20125;-70
2022/11/09 01:02:07;;;;;;;0.30;0.30;;;;;;;;;;7374781;19;20105;-69
2022/11/09 01:04:32;;;;;;;0.40;0.40;;;;;;;;;;7376399;19;20114;-71
2022/11/09 01:06:58;;;;;;;0.50;0.50;;;;;;;;;;7375319;19;20605;-69
2022/11/09 01:09:23;;;;;;;0.50;0.50;;;;;;;;;;7382823;19;20109;-71
2022/11/09 01:11:48;;;;;;;0.20;0.20;;;;;;;;;;7386267;19;20117;-69
2022/11/09 01:14:14;;;;;;;0.20;0.20;;;;;;;;;;7378941;19;20155;-72
2022/11/09 01:16:39;;;;;;;0.30;0.30;;;;;;;;;;7378549;19;20153;-69
2022/11/09 01:19:04;;;;;;;0.30;0.30;;;;;;;;;;7382748;19;20125;-69
2022/11/09 01:21:30;;;;;;;0.23;0.23;;;;;;;;;;7372372;19;20579;-71
2022/11/09 01:23:57;;;;;;;0.67;0.67;;;;;;;;;;7375925;19;20121;-69
2022/11/09 01:26:22;;;;;;;0.30;0.30;;;;;;;;;;7376164;19;20134;-69
2022/11/09 01:28:48;;;;;;;0.30;0.30;;;;;;;;;;7379998;19;20109;-69
2022/11/09 01:31:15;;;;;;;0.30;0.30;;;;;;;;;;7383447;19;20163;-70
2022/11/09 01:33:40;;;;;;;0.40;0.40;;;;;;;;;;7374262;19;20125;-69
2022/11/09 01:36:15;;;;;;;0.23;0.23;;;;;;;;;;7378373;19;20626;-70
2022/11/09 01:38:41;;;;;;;0.40;0.40;;;;;;;;;;7378011;19;20105;-71
2022/11/09 01:41:08;;;;;;;0.50;0.50;;;;;;;;;;7376523;19;20521;-68
2022/11/09 01:43:34;;;;;;;0.20;0.20;;;;;;;;;;7381719;19;20117;-68
2022/11/09 01:46:24;;;;;;;0.40;0.40;;;;;;;;;;7379218;19;20590;-68
2022/11/09 01:48:57;;;;;;;0.60;0.60;;;;;;;;;;7374768;19;20109;-68
2022/11/09 01:51:27;;;;;;;0.50;0.50;;;;;;;;;;7377509;19;20130;-72
2022/11/09 01:54:00;;;;;;;0.30;0.30;;;;;;;;;;7373094;19;20109;-69
2022/11/09 01:56:26;;;;;;;0.53;0.53;;;;;;;;;;7372808;19;20188;-71
2022/11/09 01:58:55;;;;;;;0.30;0.30;;;;;;;;;;7372245;19;20196;-68
2022/11/09 02:01:21;;;;;;;0.53;0.53;;;;;;;;;;7372756;19;20760;-68
2022/11/09 02:03:56;;;;;;;0.33;0.33;;;;;;;;;;7382442;19;20109;-71
2022/11/09 02:06:22;;;;;;;0.67;0.67;;;;;;;;;;7376889;19;20120;-69
2022/11/09 02:08:48;;;;;;;0.87;0.83;;;;;;;;;;7375290;19;20126;-68
2022/11/09 02:11:16;;;;;;;0.37;0.37;;;;;;;;;;7373314;19;20122;-68
2022/11/09 02:13:45;;;;;;;0.30;0.30;;;;;;;;;;7376966;19;20121;-70
2022/11/09 02:16:12;;;;;;;0.30;0.30;;;;;;;;;;7375331;19;20152;-68
2022/11/09 02:18:41;;;;;;;0.63;0.63;;;;;;;;;;7379997;19;20109;-70
2022/11/09 02:21:06;;;;;;;0.30;0.30;;;;;;;;;;7374745;19;20575;-68
2022/11/09 02:23:31;;;;;;;0.30;0.30;;;;;;;;;;7376981;19;20109;-69
2022/11/09 02:26:05;;;;;;;0.20;0.20;;;;;;;;;;7378551;19;20128;-68
2022/11/09 02:28:31;;;;;;;0.30;0.30;;;;;;;;;;7377301;19;20116;-68
2022/11/09 02:30:57;;;;;;;0.30;0.30;;;;;;;;;;7374105;19;20579;-68
2022/11/09 02:33:22;;;;;;;0.20;0.20;;;;;;;;;;7374719;19;20217;-69
2022/11/09 02:35:48;;;;;;;0.30;0.30;;;;;;;;;;7374702;19;20185;-70
2022/11/09 02:38:13;;;;;;;0.30;0.30;;;;;;;;;;7376662;19;20105;-68
2022/11/09 02:40:42;;;;;;;0.20;0.20;;;;;;;;;;7376568;19;20579;-69
2022/11/09 02:43:09;;;;;;;0.30;0.30;;;;;;;;;;7376244;19;20112;-71
2022/11/09 02:45:34;;;;;;;0.30;0.30;;;;;;;;;;7376811;19;20159;-68
2022/11/09 02:47:59;;;;;;;0.30;0.30;;;;;;;;;;7373231;19;20685;-72
2022/11/09 02:50:25;;;;;;;0.30;0.30;;;;;;;;;;7376163;19;20576;-69
2022/11/09 02:52:50;;;;;;;0.20;0.20;;;;;;;;;;7373295;19;20117;-68
2022/11/09 02:55:15;;;;;;;0.33;0.33;;;;;;;;;;7375570;19;20540;-68
2022/11/09 02:57:41;;;;;;;0.20;0.20;;;;;;;;;;7371577;19;20113;-69
2022/11/09 03:00:07;;;;;;;0.30;0.30;;;;;;;;;;7366444;19;20598;-69
2022/11/09 03:02:33;;;;;;;0.20;0.20;;;;;;;;;;7376910;19;20120;-71
2022/11/09 03:04:58;;;;;;;0.30;0.30;;;;;;;;;;7371994;19;20117;-69
2022/11/09 03:07:24;;;;;;;0.20;0.20;;;;;;;;;;7370034;19;20610;-69
2022/11/09 03:09:49;;;;;;;0.43;0.43;;;;;;;;;;7372561;19;20578;-68
2022/11/09 03:12:30;;;;;;;0.30;0.30;;;;;;;;;;7369228;19;20117;-70
2022/11/09 03:14:57;;;;;;;0.27;0.27;;;;;;;;;;7374609;19;20483;-70
2022/11/09 03:17:22;;;;;;;0.30;0.30;;;;;;;;;;7377449;19;20559;-71
2022/11/09 03:19:47;;;;;;;0.77;0.60;;;;;;;;;;7370400;19;20129;-70
2022/11/09 03:22:13;;;;;;;0.40;0.40;;;;;;;;;;7364415;19;20101;-68
2022/11/09 03:24:38;;;;;;;0.30;0.30;;;;;;;;;;7375601;19;20442;-69
2022/11/09 03:27:04;;;;;;;0.40;0.40;;;;;;;;;;7371515;19;20476;-69
2022/11/09 03:29:29;;;;;;;0.20;0.20;;;;;;;;;;7371092;19;20168;-69
2022/11/09 03:31:54;;;;;;;0.20;0.20;;;;;;;;;;7372926;19;20128;-68
2022/11/09 03:34:19;;;;;;;0.40;0.40;;;;;;;;;;7380913;19;20109;-68
2022/11/09 03:36:45;;;;;;;0.30;0.30;;;;;;;;;;7370781;19;20458;-70
2022/11/09 03:39:10;;;;;;;0.20;0.20;;;;;;;;;;7378594;19;20122;-69
2022/11/09 03:41:35;;;;;;;4.63;0.50;;;;;;;;;;7370912;19;20098;-69
2022/11/09 03:44:01;;;;;;;0.30;0.30;;;;;;;;;;7371213;19;20101;-68
2022/11/09 03:46:26;;;;;;;0.20;0.20;;;;;;;;;;7368321;19;20153;-69
2022/11/09 03:48:52;;;;;;;0.30;0.30;;;;;;;;;;7368421;19;20116;-68
2022/11/09 03:51:17;;;;;;;0.30;0.30;;;;;;;;;;7374985;19;20101;-69
2022/11/09 03:53:42;;;;;;;0.20;0.20;;;;;;;;;;7370786;19;20105;-71
2022/11/09 03:56:07;;;;;;;0.30;0.30;;;;;;;;;;7367655;19;20603;-70
2022/11/09 03:58:33;;;;;;;0.30;0.30;;;;;;;;;;7369493;19;20109;-72
2022/11/09 04:00:58;;;;;;;0.20;0.20;;;;;;;;;;7369260;19;20105;-68
2022/11/09 04:03:23;;;;;;;0.20;0.20;;;;;;;;;;7382545;19;20658;-70
2022/11/09 04:05:48;;;;;;;0.30;0.30;;;;;;;;;;7383655;19;20121;-68
2022/11/09 04:08:14;;;;;;;0.30;0.30;;;;;;;;;;7370711;19;20126;-69
2022/11/09 04:10:39;;;;;;;0.40;0.40;;;;;;;;;;7371683;19;20689;-68
2022/11/09 04:13:04;;;;;;;0.30;0.30;;;;;;;;;;7375294;19;20101;-69
2022/11/09 04:15:30;;;;;;;0.30;0.30;;;;;;;;;;7371734;19;20117;-68
2022/11/09 04:18:00;;;;;;;0.20;0.20;;;;;;;;;;7379304;19;20105;-68
2022/11/09 04:20:27;;;;;;;0.30;0.30;;;;;;;;;;7368820;19;20700;-69
2022/11/09 04:22:54;;;;;;;0.30;0.30;;;;;;;;;;7378202;19;20192;-68
2022/11/09 04:25:19;;;;;;;0.83;0.83;;;;;;;;;;7375302;19;20600;-70
2022/11/09 04:27:44;;;;;;;0.40;0.40;;;;;;;;;;7376223;19;20113;-71
2022/11/09 04:30:10;;;;;;;0.37;0.37;;;;;;;;;;7379583;19;20109;-72
2022/11/09 04:32:35;;;;;;;0.40;0.40;;;;;;;;;;7374825;19;20459;-69
2022/11/09 04:35:00;;;;;;;0.30;0.30;;;;;;;;;;7379098;19;20510;-69
2022/11/09 04:37:26;;;;;;;0.20;0.20;;;;;;;;;;7381411;19;20112;-68
2022/11/09 04:39:51;;;;;;;1.03;0.93;;;;;;;;;;7380484;19;20443;-68
2022/11/09 04:42:16;;;;;;;0.30;0.30;;;;;;;;;;7378585;19;20604;-68
2022/11/09 04:44:42;;;;;;;0.30;0.30;;;;;;;;;;7379431;19;20109;-68
2022/11/09 04:47:07;;;;;;;0.30;0.30;;;;;;;;;;7376391;19;20170;-72
2022/11/09 04:49:32;;;;;;;0.30;0.30;;;;;;;;;;7386502;19;20128;-71
2022/11/09 04:51:57;;;;;;;0.30;0.30;;;;;;;;;;7375975;19;20161;-69
2022/11/09 04:54:23;;;;;;;0.20;0.20;;;;;;;;;;7376895;19;20117;-70
2022/11/09 04:56:48;;;;;;;0.30;0.30;;;;;;;;;;7382803;19;20189;-68
2022/11/09 04:59:13;;;;;;;0.20;0.20;;;;;;;;;;7388074;19;20142;-68
2022/11/09 05:01:39;;;;;;;0.30;0.30;;;;;;;;;;7387433;19;20169;-68
2022/11/09 05:04:04;;;;;;;0.30;0.30;;;;;;;;;;7390716;19;20101;-70
2022/11/09 05:06:32;;;;;;;0.20;0.20;;;;;;;;;;7387427;19;20377;-68
2022/11/09 05:09:03;;;;;;;0.30;0.30;;;;;;;;;;7389190;19;20575;-68
2022/11/09 05:11:29;;;;;;;0.20;0.20;;;;;;;;;;7386403;19;20116;-71
2022/11/09 05:13:55;;;;;;;0.30;0.30;;;;;;;;;;7386862;19;20140;-69
2022/11/09 05:16:21;;;;;;;0.20;0.20;;;;;;;;;;7386144;19;20125;-70
2022/11/09 05:18:47;;;;;;;0.20;0.20;;;;;;;;;;7387967;19;20687;-68
2022/11/09 05:21:12;;;;;;;0.30;0.30;;;;;;;;;;7387882;19;20102;-68
2022/11/09 05:26:21;;;;;;;0.20;0.20;;;;;;;;;;7387053;19;20132;-72
2022/11/09 05:28:47;;;;;;;0.30;0.30;;;;;;;;;;7386386;19;20577;-69
2022/11/09 05:31:12;;;;;;;0.20;0.20;;;;;;;;;;7384135;19;20122;-72
2022/11/09 05:33:37;;;;;;;0.30;0.30;;;;;;;;;;7384057;19;20168;-68
2022/11/09 05:36:03;;;;;;;0.30;0.30;;;;;;;;;;7384824;19;20136;-68
2022/11/09 05:38:28;;;;;;;0.23;0.23;;;;;;;;;;7387641;19;20504;-68
2022/11/09 05:40:53;;;;;;;0.23;0.23;;;;;;;;;;7385019;19;20101;-70
2022/11/09 05:43:19;;;;;;;0.20;0.20;;;;;;;;;;7385463;19;20102;-72
2022/11/09 05:45:45;;;;;;;0.30;0.30;;;;;;;;;;7382885;19;20120;-70
2022/11/09 05:48:12;;;;;;;0.20;0.20;;;;;;;;;;7389903;19;20173;-69
2022/11/09 05:50:38;;;;;;;0.27;0.27;;;;;;;;;;7384932;19;20105;-71
2022/11/09 05:53:04;;;;;;;0.30;0.30;;;;;;;;;;7384952;19;20468;-68
2022/11/09 05:55:29;;;;;;;0.30;0.30;;;;;;;;;;7386523;19;20114;-69
2022/11/09 05:57:54;;;;;;;0.30;0.30;;;;;;;;;;7384664;19;20129;-68
2022/11/09 06:00:20;;;;;;;0.20;0.20;;;;;;;;;;7386015;19;20635;-68
2022/11/09 06:02:46;;;;;;;0.33;0.33;;;;;;;;;;7385236;19;20169;-69
2022/11/09 06:05:11;;;;;;;0.27;0.27;;;;;;;;;;7385383;19;20118;-70
2022/11/09 06:07:36;;;;;;;0.23;0.23;;;;;;;;;;7385814;19;20105;-68
2022/11/09 06:10:03;;;;;;;0.30;0.30;;;;;;;;;;7386257;19;20482;-69
2022/11/09 06:12:28;;;;;;;0.30;0.30;;;;;;;;;;7379881;19;20098;-69
2022/11/09 06:14:54;;;;;;;0.20;0.20;;;;;;;;;;7380295;19;20129;-71
2022/11/09 06:17:19;;;;;;;0.30;0.30;;;;;;;;;;7372351;19;20565;-69
2022/11/09 06:19:44;;;;;;;0.30;0.30;;;;;;;;;;7382471;19;20110;-69
2022/11/09 06:22:11;;;;;;;0.40;0.40;;;;;;;;;;7377233;19;20134;-69
2022/11/09 06:24:36;;;;;;;0.27;0.27;;;;;;;;;;7384873;19;20106;-70
2022/11/09 06:27:01;;;;;;;0.20;0.20;;;;;;;;;;7384145;19;20121;-69
2022/11/09 06:29:27;;;;;;;0.30;0.30;;;;;;;;;;7384173;19;20098;-69
2022/11/09 06:31:52;;;;;;;0.30;0.30;;;;;;;;;;7378797;19;20125;-69
2022/11/09 06:34:17;;;;;;;0.20;0.20;;;;;;;;;;7379825;19;20102;-69
2022/11/09 06:36:43;;;;;;;1.63;1.53;;;;;;;;;;7384477;19;20145;-69
2022/11/09 06:39:09;;;;;;;0.20;0.20;;;;;;;;;;7379488;19;20479;-69
2022/11/09 06:41:35;;;;;;;0.30;0.30;;;;;;;;;;7372988;19;20120;-68
2022/11/09 06:44:00;;;;;;;0.20;0.20;;;;;;;;;;7374329;19;20120;-69
2022/11/09 06:46:25;;;;;;;25.60;0.93;;;;;;;;;;7372414;19;20125;-70
2022/11/09 06:48:51;;;;;;;0.30;0.30;;;;;;;;;;7380082;19;20109;-69
2022/11/09 06:51:16;;;;;;;0.30;0.30;;;;;;;;;;7374491;19;20435;-69
2022/11/09 06:53:42;;;;;;;0.20;0.20;;;;;;;;;;7375547;19;20451;-69
2022/11/09 06:56:08;;;;;;;0.47;0.47;;;;;;;;;;7374981;19;20125;-72
2022/11/09 06:58:33;;;;;;;0.30;0.30;;;;;;;;;;7369139;19;21098;-69
2022/11/09 07:00:58;;;;;;;0.20;0.20;;;;;;;;;;7378703;19;20125;-69
2022/11/09 07:03:24;;;;;;;0.23;0.23;;;;;;;;;;7373995;19;20121;-71
2022/11/09 07:05:51;;;;;;;0.20;0.20;;;;;;;;;;7372001;19;20136;-69
2022/11/09 07:08:17;;;;;;;0.50;0.50;;;;;;;;;;7378404;19;20110;-69
2022/11/09 07:10:44;;;;;;;0.57;0.57;;;;;;;;;;7378352;19;20123;-70
2022/11/09 07:13:09;;;;;;;0.20;0.20;;;;;;;;;;7366628;19;20201;-70
2022/11/09 07:15:36;;;;;;;0.30;0.30;;;;;;;;;;7373303;19;20682;-69
2022/11/09 07:18:04;;;;;;;0.30;0.30;;;;;;;;;;7377546;19;20117;-69
2022/11/09 07:20:29;;;;;;;0.40;0.40;;;;;;;;;;7362824;19;20105;-72
2022/11/09 07:22:55;;;;;;;0.20;0.20;;;;;;;;;;7371441;19;20105;-69
2022/11/09 07:25:20;;;;;;;0.30;0.30;;;;;;;;;;7370552;19;20136;-72
2022/11/09 07:27:45;;;;;;;0.30;0.30;;;;;;;;;;7373620;19;20622;-70
2022/11/09 07:30:11;;;;;;;0.30;0.30;;;;;;;;;;7370027;19;20579;-69
2022/11/09 07:32:38;;;;;;;0.30;0.30;;;;;;;;;;7377178;19;20137;-70
2022/11/09 07:35:04;;;;;;;0.20;0.20;;;;;;;;;;7380518;19;20216;-69
2022/11/09 07:37:30;;;;;;;0.20;0.20;;;;;;;;;;7371776;19;20121;-70
2022/11/09 07:39:55;;;;;;;0.23;0.23;;;;;;;;;;7377562;19;20098;-73
2022/11/09 07:42:20;;;;;;;0.20;0.20;;;;;;;;;;7382048;19;20641;-71
2022/11/09 07:44:46;;;;;;;0.23;0.23;;;;;;;;;;7382991;19;20113;-72
2022/11/09 07:47:11;;;;;;;0.30;0.30;;;;;;;;;;7377615;19;20106;-69
2022/11/09 07:49:36;;;;;;;0.30;0.30;;;;;;;;;;7377510;19;20113;-69
2022/11/09 07:52:02;;;;;;;0.30;0.30;;;;;;;;;;7377962;19;20101;-69
2022/11/09 07:54:27;;;;;;;0.20;0.20;;;;;;;;;;7382439;19;20122;-68
2022/11/09 07:56:53;;;;;;;0.30;0.30;;;;;;;;;;7378134;19;20177;-71
2022/11/09 07:59:18;;;;;;;0.23;0.23;;;;;;;;;;7384855;19;20102;-69
2022/11/09 08:01:43;;;;;;;0.20;0.20;;;;;;;;;;7384133;19;20208;-70
2022/11/09 08:04:09;;;;;;;0.30;0.30;;;;;;;;;;7387343;19;20097;-69
2022/11/09 08:06:35;;;;;;;0.30;0.30;;;;;;;;;;7384842;19;20125;-69
2022/11/09 08:09:00;;;;;;;0.20;0.20;;;;;;;;;;7386834;19;20105;-71
2022/11/09 08:11:26;;;;;;;0.20;0.20;;;;;;;;;;7382143;19;20133;-69
2022/11/09 08:13:51;;;;;;;0.30;0.30;;;;;;;;;;7385546;19;20105;-69
2022/11/09 08:16:17;;;;;;;0.30;0.30;;;;;;;;;;7385200;19;20117;-69
2022/11/09 08:18:42;;;;;;;0.30;0.30;;;;;;;;;;7386491;19;20117;-70
2022/11/09 08:21:08;;;;;;;0.30;0.30;;;;;;;;;;7388408;19;20635;-69
2022/11/09 08:23:33;;;;;;;0.33;0.33;;;;;;;;;;7389916;19;20468;-70
2022/11/09 08:26:02;;;;;;;0.20;0.20;;;;;;;;;;7389498;19;20121;-69
2022/11/09 08:28:28;;;;;;;0.30;0.30;;;;;;;;;;7385892;19;20114;-69
2022/11/09 08:30:55;;;;;;;0.30;0.30;;;;;;;;;;7388089;19;20105;-68
2022/11/09 08:33:21;;;;;;;0.20;0.20;;;;;;;;;;7382280;19;20102;-70
2022/11/09 08:35:46;;;;;;;0.23;0.23;;;;;;;;;;7388525;19;20117;-70
2022/11/09 08:38:12;;;;;;;0.20;0.20;;;;;;;;;;7380576;19;20132;-69
2022/11/09 08:40:37;;;;;;;0.30;0.30;;;;;;;;;;7373552;19;20642;-70
2022/11/09 08:43:05;;;;;;;0.30;0.30;;;;;;;;;;7372384;19;20184;-71
2022/11/09 08:45:33;;;;;;;0.30;0.30;;;;;;;;;;7374614;19;20121;-70
2022/11/09 08:48:01;;;;;;;0.20;0.20;;;;;;;;;;7384100;19;20109;-69
2022/11/09 08:50:27;;;;;;;0.20;0.20;;;;;;;;;;7377720;19;20499;-70
2022/11/09 08:52:53;;;;;;;0.30;0.30;;;;;;;;;;7382464;19;20117;-73
2022/11/09 08:55:18;;;;;;;0.30;0.30;;;;;;;;;;7389408;19;20132;-69
2022/11/09 08:57:44;;;;;;;0.30;0.30;;;;;;;;;;7389846;19;20125;-70
2022/11/09 09:00:11;;;;;;;0.30;0.30;;;;;;;;;;7389148;19;20113;-73
2022/11/09 09:02:36;;;;;;;0.30;0.30;;;;;;;;;;7387076;19;20117;-69
2022/11/09 09:05:02;;;;;;;0.20;0.20;;;;;;;;;;7390132;19;20582;-69
2022/11/09 09:07:28;;;;;;;0.37;0.37;;;;;;;;;;7388439;19;20121;-71
2022/11/09 09:09:53;;;;;;;0.20;0.20;;;;;;;;;;7381481;19;20105;-69
2022/11/09 09:12:19;;;;;;;1.85;0.50;;;;;;;;;;7388523;19;20122;-69
2022/11/09 09:14:44;;;;;;;0.20;0.20;;;;;;;;;;7387176;19;20128;-72
2022/11/09 09:17:09;;;;;;;0.30;0.30;;;;;;;;;;7389837;19;20101;-69
2022/11/09 09:19:35;;;;;;;0.30;0.30;;;;;;;;;;7387809;19;20117;-69
2022/11/09 09:22:01;;;;;;;0.20;0.20;;;;;;;;;;7389639;19;20113;-72
2022/11/09 09:24:26;;;;;;;0.20;0.20;;;;;;;;;;7389042;19;20539;-69
2022/11/09 09:26:52;;;;;;;0.20;0.20;;;;;;;;;;7386819;19;20579;-69
2022/11/09 09:29:17;;;;;;;0.20;0.20;;;;;;;;;;7388234;19;20145;-69
2022/11/09 09:31:43;;;;;;;0.20;0.20;;;;;;;;;;7384103;19;20184;-69
2022/11/09 09:34:10;;;;;;;0.30;0.30;;;;;;;;;;7385876;19;20101;-69
2022/11/09 09:36:35;;;;;;;0.20;0.20;;;;;;;;;;7385050;19;20185;-69
2022/11/09 09:39:00;;;;;;;0.30;0.30;;;;;;;;;;7389383;19;20566;-70
2022/11/09 09:41:44;;;;;;;0.22;0.22;;;;;;;;;;7385719;19;20109;-72
2022/11/09 09:44:15;;;;;;;0.20;0.20;;;;;;;;;;7387465;19;20134;-69
2022/11/09 09:46:59;;;;;;;0.30;0.30;;;;;;;;;;7386965;19;20458;-69
2022/11/09 09:49:28;;;;;;;0.20;0.20;;;;;;;;;;7386018;19;20212;-69
2022/11/09 09:51:58;;;;;;;0.30;0.30;;;;;;;;;;7376828;19;20127;-70
2022/11/09 09:54:27;;;;;;;0.22;0.22;;;;;;;;;;7384262;19;20127;-69
2022/11/09 09:56:56;;;;;;;0.30;0.30;;;;;;;;;;7384359;19;20117;-71
2022/11/09 09:59:37;;;;;;;0.20;0.20;;;;;;;;;;7386917;19;20595;-70
2022/11/09 10:02:20;;;;;;;0.20;0.20;;;;;;;;;;7382189;19;20105;-72
2022/11/09 10:04:46;;;;;;;0.30;0.30;;;;;;;;;;7379066;19;20127;-69
2022/11/09 10:07:36;;;;;;;0.35;0.35;;;;;;;;;;7381944;19;20164;-71
2022/11/09 10:10:45;;;;;;;0.30;0.30;;;;;;;;;;7378106;19;20462;-70
2022/11/09 10:14:00;;;;;;;0.20;0.20;;;;;;;;;;7382087;19;20429;-69
2022/11/09 10:16:34;;;;;;;0.40;0.40;;;;;;;;;;7381869;19;20148;-69
2022/11/09 10:19:21;;;;;;;0.30;0.30;;;;;;;;;;7386496;19;20213;-69
2022/11/09 10:22:07;;;;;;;0.20;0.20;;;;;;;;;;7379343;19;20161;-69
2022/11/09 10:24:38;;;;;;;0.30;0.30;;;;;;;;;;7374296;19;20127;-70
2022/11/09 10:27:16;;;;;;;0.20;0.20;;;;;;;;;;7366976;19;20129;-69
2022/11/09 10:29:45;;;;;;;0.20;0.20;;;;;;;;;;7375317;19;20120;-69
2022/11/09 10:32:16;;;;;;;0.20;0.20;;;;;;;;;;7369691;19;20121;-70
2022/11/09 10:35:09;;;;;;;0.30;0.30;;;;;;;;;;7371837;19;20109;-69
2022/11/09 10:37:40;;;;;;;0.30;0.30;;;;;;;;;;7380229;19;20113;-69
2022/11/09 10:40:17;;;;;;;0.32;0.32;;;;;;;;;;7377898;19;20160;-71
2022/11/09 10:42:48;;;;;;;0.30;0.30;;;;;;;;;;7369141;19;20961;-69
2022/11/09 10:45:30;;;;;;;0.20;0.20;;;;;;;;;;7379008;19;20619;-69
2022/11/09 10:47:56;;;;;;;0.30;0.30;;;;;;;;;;7382158;19;20101;-71
2022/11/09 10:50:45;;;;;;;0.30;0.30;;;;;;;;;;7379861;19;20613;-69
2022/11/09 10:53:25;;;;;;;0.20;0.20;;;;;;;;;;7377237;19;20122;-69
2022/11/09 10:55:59;;;;;;;0.30;0.30;;;;;;;;;;7379766;19;20472;-69
2022/11/09 10:58:28;;;;;;;0.20;0.20;;;;;;;;;;7376261;19;20128;-69
2022/11/09 11:00:55;;;;;;;0.30;0.30;;;;;;;;;;7378585;19;20132;-69
2022/11/09 11:03:23;;;;;;;0.30;0.30;;;;;;;;;;7379400;19;20111;-69
2022/11/09 11:05:57;;;;;;;0.40;0.40;;;;;;;;;;7381063;19;20160;-70
2022/11/09 11:08:29;;;;;;;0.73;0.73;;;;;;;;;;7383634;19;20113;-72
2022/11/09 11:11:16;;;;;;;0.25;0.25;;;;;;;;;;7383549;19;20626;-69
2022/11/09 11:13:41;;;;;;;0.20;0.20;;;;;;;;;;7374134;19;20501;-69
2022/11/09 11:16:26;;;;;;;0.30;0.30;;;;;;;;;;7373167;19;20245;-70
2022/11/09 11:18:52;;;;;;;0.20;0.20;;;;;;;;;;7383701;19;20112;-69
2022/11/09 11:21:22;;;;;;;0.30;0.30;;;;;;;;;;7380437;19;20105;-69
2022/11/09 11:24:02;;;;;;;0.20;0.20;;;;;;;;;;7380653;19;20105;-71
2022/11/09 11:26:39;;;;;;;0.30;0.30;;;;;;;;;;7376731;19;20236;-70
2022/11/09 11:29:17;;;;;;;0.30;0.30;;;;;;;;;;7368999;19;20109;-69
2022/11/09 11:31:43;;;;;;;0.30;0.30;;;;;;;;;;7369332;19;20119;-69
2022/11/09 11:34:13;;;;;;;0.30;0.30;;;;;;;;;;7385569;19;20101;-72
2022/11/09 11:37:08;;;;;;;0.30;0.30;;;;;;;;;;7379422;19;20184;-71
2022/11/09 11:39:52;;;;;;;0.28;0.28;;;;;;;;;;7391634;19;20121;-70
2022/11/09 11:42:21;;;;;;;0.40;0.40;;;;;;;;;;7389849;19;20117;-69
2022/11/09 11:45:18;;;;;;;0.30;0.30;;;;;;;;;;7386596;19;20124;-69
2022/11/09 11:48:07;;;;;;;0.30;0.30;;;;;;;;;;7382664;19;20125;-72
2022/11/09 11:50:45;;;;;;;0.30;0.30;;;;;;;;;;7387098;19;20167;-69
2022/11/09 11:53:35;;;;;;;0.30;0.30;;;;;;;;;;7389470;19;20120;-70
2022/11/09 11:56:26;;;;;;;0.30;0.30;;;;;;;;;;7390480;19;20121;-69
2022/11/09 11:59:17;;;;;;;0.20;0.20;;;;;;;;;;7390142;19;20098;-68
2022/11/09 12:01:49;;;;;;;0.20;0.20;;;;;;;;;;7389387;19;20105;-69
2022/11/09 12:04:27;;;;;;;0.20;0.20;;;;;;;;;;7391159;19;20111;-70
2022/11/09 12:06:58;;;;;;;0.20;0.20;;;;;;;;;;7387844;19;20164;-70
2022/11/09 12:09:39;;;;;;;0.20;0.20;;;;;;;;;;7390312;19;20456;-69
2022/11/09 12:12:43;;;;;;;0.20;0.20;;;;;;;;;;7389124;19;20139;-69
2022/11/09 12:15:21;;;;;;;0.30;0.30;;;;;;;;;;7390620;19;20152;-72
2022/11/09 12:18:01;;;;;;;0.20;0.20;;;;;;;;;;7390061;19;20591;-69
2022/11/09 12:20:38;;;;;;;0.30;0.30;;;;;;;;;;7380571;19;20101;-69
2022/11/09 12:23:42;;;;;;;0.30;0.30;;;;;;;;;;7379032;19;20934;-69
2022/11/09 12:26:33;;;;;;;0.20;0.20;;;;;;;;;;7380553;19;20474;-69
2022/11/09 12:29:18;;;;;;;0.30;0.30;;;;;;;;;;7383563;19;20101;-71
2022/11/09 12:32:21;;;;;;;0.20;0.20;;;;;;;;;;7378747;19;20146;-69
2022/11/09 12:35:01;;;;;;;0.30;0.30;;;;;;;;;;7383756;19;20209;-69
2022/11/09 12:37:29;;;;;;;0.30;0.30;;;;;;;;;;7388873;19;20129;-71
2022/11/09 12:40:03;;;;;;;0.30;0.30;;;;;;;;;;7389317;19;20468;-69
2022/11/09 12:42:36;;;;;;;0.20;0.20;;;;;;;;;;7388129;19;20122;-69
2022/11/09 12:45:21;;;;;;;0.30;0.30;;;;;;;;;;7370236;19;20117;-69
2022/11/09 12:47:47;;;;;;;0.20;0.20;;;;;;;;;;7383207;19;20105;-71
2022/11/09 12:50:15;;;;;;;0.20;0.20;;;;;;;;;;7381510;19;20109;-69
2022/11/09 12:52:41;;;;;;;0.30;0.30;;;;;;;;;;7387094;19;20128;-71
2022/11/09 12:55:12;;;;;;;0.25;0.25;;;;;;;;;;7379370;19;20121;-70
2022/11/09 12:57:37;;;;;;;0.20;0.20;;;;;;;;;;7374244;19;20607;-70
2022/11/09 13:00:03;;;;;;;0.20;0.20;;;;;;;;;;7379761;19;20101;-69
2022/11/09 13:02:31;;;;;;;0.20;0.20;;;;;;;;;;7380353;19;20109;-69
2022/11/09 13:05:01;;;;;;;0.20;0.20;;;;;;;;;;7373651;19;20101;-70
2022/11/09 13:07:39;;;;;;;0.30;0.30;;;;;;;;;;7373275;19;20123;-69
2022/11/09 13:10:04;;;;;;;0.30;0.30;;;;;;;;;;7364365;19;20138;-71
2022/11/09 13:12:37;;;;;;;0.30;0.30;;;;;;;;;;7369593;19;20125;-69
2022/11/09 13:15:19;;;;;;;0.30;0.30;;;;;;;;;;7365747;19;20112;-70
2022/11/09 13:17:58;;;;;;;0.27;0.27;;;;;;;;;;7363911;19;20458;-71
2022/11/09 13:20:50;;;;;;;0.20;0.20;;;;;;;;;;7362146;19;20135;-72
2022/11/09 13:23:27;;;;;;;0.30;0.30;;;;;;;;;;7380052;19;20136;-70
2022/11/09 13:25:53;;;;;;;0.30;0.30;;;;;;;;;;7386895;19;20330;-69
2022/11/09 13:28:27;;;;;;;0.30;0.30;;;;;;;;;;7384664;19;20101;-73
2022/11/09 13:30:56;;;;;;;0.20;0.20;;;;;;;;;;7379847;19;20485;-69
2022/11/09 13:33:31;;;;;;;0.20;0.20;;;;;;;;;;7381783;19;20101;-69
2022/11/09 13:36:19;;;;;;;0.30;0.30;;;;;;;;;;7373361;19;20583;-70
2022/11/09 13:38:44;;;;;;;0.30;0.30;;;;;;;;;;7388338;19;20606;-71
2022/11/09 13:41:28;;;;;;;0.40;0.40;;;;;;;;;;7378809;19;20105;-69
2022/11/09 13:44:23;;;;;;;0.30;0.30;;;;;;;;;;7379891;19;20560;-69
2022/11/09 13:46:48;;;;;;;0.20;0.20;;;;;;;;;;7385275;19;20440;-72
2022/11/09 13:49:40;;;;;;;0.30;0.30;;;;;;;;;;7383123;19;20601;-69
2022/11/09 13:52:44;;;;;;;0.30;0.30;;;;;;;;;;7371919;19;20125;-70
2022/11/09 13:55:20;;;;;;;0.30;0.30;;;;;;;;;;7374894;19;20128;-71
2022/11/09 13:57:45;;;;;;;0.30;0.30;;;;;;;;;;7380595;19;20129;-69
2022/11/09 14:00:18;;;;;;;0.23;0.23;;;;;;;;;;7373684;19;20121;-70
2022/11/09 14:03:15;;;;;;;0.20;0.20;;;;;;;;;;7383261;19;20122;-69
2022/11/09 14:05:41;;;;;;;0.20;0.20;;;;;;;;;;7377016;19;20507;-69
2022/11/09 14:08:23;;;;;;;0.30;0.30;;;;;;;;;;7377986;19;20102;-69
2022/11/09 14:11:18;;;;;;;0.20;0.20;;;;;;;;;;7383435;19;20615;-70
2022/11/09 14:14:08;;;;;;;0.30;0.30;;;;;;;;;;7378858;19;20117;-69
2022/11/09 14:17:01;;;;;;;0.20;0.20;;;;;;;;;;7380266;19;20125;-69
2022/11/09 14:19:32;;;;;;;0.20;0.20;;;;;;;;;;7378630;19;20599;-69
2022/11/09 14:21:57;;;;;;;0.20;0.20;;;;;;;;;;7376493;19;20105;-69
2022/11/09 14:24:33;;;;;;;0.30;0.30;;;;;;;;;;7378552;19;20140;-70
2022/11/09 14:27:01;;;;;;;0.20;0.20;;;;;;;;;;7374737;19;20121;-69
2022/11/09 14:29:31;;;;;;;0.20;0.20;;;;;;;;;;7382965;19;20110;-68
2022/11/09 14:31:57;;;;;;;0.30;0.30;;;;;;;;;;7377270;19;20131;-71
2022/11/09 14:34:22;;;;;;;0.20;0.20;;;;;;;;;;7380254;19;20106;-69
2022/11/09 14:36:47;;;;;;;0.30;0.30;;;;;;;;;;7383330;19;20121;-69
2022/11/09 14:39:23;;;;;;;0.20;0.20;;;;;;;;;;7384094;19;20432;-69
2022/11/09 14:41:49;;;;;;;0.20;0.20;;;;;;;;;;7381117;19;20113;-69
2022/11/09 14:44:38;;;;;;;0.20;0.20;;;;;;;;;;7378879;19;20117;-69
2022/11/09 14:47:05;;;;;;;0.30;0.30;;;;;;;;;;7378484;19;20129;-72
2022/11/09 14:49:30;;;;;;;0.30;0.30;;;;;;;;;;7377450;19;20112;-72
2022/11/09 14:51:56;;;;;;;0.20;0.20;;;;;;;;;;7383442;19;20121;-69
2022/11/09 14:54:24;;;;;;;0.20;0.20;;;;;;;;;;7381774;19;20432;-69
2022/11/09 14:56:50;;;;;;;0.30;0.30;;;;;;;;;;7382940;19;20117;-69
2022/11/09 14:59:19;;;;;;;0.30;0.30;;;;;;;;;;7377762;19;20101;-69
2022/11/09 15:01:58;;;;;;;0.20;0.20;;;;;;;;;;7372669;19;20202;-69